createdAt,value
2024-01-30T00:03:25.640Z,19.60
2024-01-30T00:08:28.210Z,18.70
2024-01-30T00:13:30.761Z,20.27
2024-01-30T00:18:33.182Z,19.50
2024-01-30T00:23:35.737Z,20.27
2024-01-30T00:28:38.910Z,19.48
2024-01-30T00:33:41.678Z,19.63
2024-01-30T00:38:44.295Z,20.73
2024-01-30T00:43:46.760Z,19.20
2024-01-30T00:48:49.320Z,18.77
2024-01-30T00:53:52.204Z,19.90
2024-01-30T00:58:54.678Z,19.35
2024-01-30T01:03:57.327Z,19.17
2024-01-30T01:09:01.641Z,18.52
2024-01-30T01:14:06.134Z,19.42
2024-01-30T01:19:08.834Z,18.77
2024-01-30T01:24:11.514Z,19.35
2024-01-30T01:29:14.361Z,18.83
2024-01-30T01:34:17.077Z,20.90
2024-01-30T01:39:20.124Z,19.88
2024-01-30T01:44:22.744Z,18.20
2024-01-30T01:49:28.556Z,20.00
2024-01-30T01:54:31.987Z,20.95
2024-01-30T01:59:34.452Z,19.95
2024-01-30T02:04:37.364Z,19.50
2024-01-30T02:09:39.947Z,19.25
2024-01-30T02:14:47.312Z,19.30
2024-01-30T02:19:50.379Z,20.75
2024-01-30T02:24:53.055Z,20.73
2024-01-30T02:29:55.838Z,19.83
2024-01-30T02:34:58.477Z,19.77
2024-01-30T02:40:01.112Z,19.23
2024-01-30T02:45:03.863Z,19.35
2024-01-30T02:50:07.083Z,20.27
2024-01-30T02:55:09.921Z,19.23
2024-01-30T03:00:13.132Z,19.45
2024-01-30T03:05:30.410Z,18.15
2024-01-30T03:10:33.104Z,18.85
2024-01-30T03:15:35.874Z,19.67
2024-01-30T03:20:38.542Z,18.35
2024-01-30T03:25:41.210Z,19.35
2024-01-30T03:30:43.948Z,17.83
2024-01-30T03:35:46.490Z,18.27
2024-01-30T03:40:48.959Z,19.00
2024-01-30T03:45:51.455Z,18.85
2024-01-30T03:50:54.032Z,18.70
2024-01-30T03:55:56.933Z,18.65
2024-01-30T04:00:59.523Z,18.65
2024-01-30T04:06:02.490Z,19.33
2024-01-30T04:11:06.834Z,18.15
2024-01-30T04:16:09.410Z,17.45
2024-01-30T04:21:11.880Z,18.63
2024-01-30T04:26:14.376Z,17.85
2024-01-30T04:31:16.924Z,16.98
2024-01-30T04:36:19.439Z,18.50
2024-01-30T04:41:21.835Z,17.88
2024-01-30T04:46:24.656Z,17.98
2024-01-30T04:51:27.204Z,17.75
2024-01-30T04:56:30.180Z,18.35
2024-01-30T05:01:32.784Z,18.70
2024-01-30T05:06:35.548Z,17.88
2024-01-30T05:11:40.793Z,18.45
2024-01-30T05:16:47.782Z,19.25
2024-01-30T05:21:51.076Z,18.00
2024-01-30T05:26:53.749Z,18.38
2024-01-30T05:31:56.284Z,16.58
2024-01-30T05:36:58.865Z,17.33
2024-01-30T05:42:01.406Z,17.35
2024-01-30T05:47:04.462Z,17.48
2024-01-30T05:52:07.316Z,16.85
2024-01-30T05:57:10.309Z,19.92
2024-01-30T06:02:13.099Z,18.30
2024-01-30T06:07:16.034Z,18.70
2024-01-30T06:12:18.513Z,19.10
2024-01-30T06:17:21.148Z,16.70
2024-01-30T06:22:23.827Z,17.73
2024-01-30T06:27:26.635Z,15.63
2024-01-30T06:32:29.904Z,17.02
2024-01-30T06:37:32.562Z,16.15
2024-01-30T06:42:35.013Z,15.55
2024-01-30T06:47:37.409Z,14.32
2024-01-30T06:52:40.564Z,16.65
2024-01-30T06:57:43.433Z,16.55
2024-01-30T07:02:45.993Z,15.10
2024-01-30T07:07:48.673Z,14.30
2024-01-30T07:12:51.281Z,15.93
2024-01-30T07:17:53.831Z,15.07
2024-01-30T07:22:56.351Z,16.65
2024-01-30T07:27:58.991Z,15.52
2024-01-30T07:33:01.706Z,16.20
2024-01-30T07:38:04.446Z,15.05
2024-01-30T07:43:07.315Z,15.35
2024-01-30T07:48:09.968Z,16.67
2024-01-30T07:53:12.535Z,17.75
2024-01-30T07:58:15.266Z,16.90
2024-01-30T08:03:19.213Z,16.42
2024-01-30T08:08:21.777Z,15.90
2024-01-30T08:13:24.404Z,15.23
2024-01-30T08:18:27.548Z,16.35
2024-01-30T08:23:30.130Z,15.35
2024-01-30T08:28:32.665Z,15.00
2024-01-30T08:33:35.335Z,15.10
2024-01-30T08:38:37.925Z,15.32
2024-01-30T08:43:40.493Z,16.77
2024-01-30T08:48:43.226Z,16.92
2024-01-30T08:53:46.034Z,16.23
2024-01-30T08:58:48.796Z,15.60
2024-01-30T09:03:51.423Z,15.40
2024-01-30T09:08:53.936Z,14.00
2024-01-30T09:13:56.510Z,15.30
2024-01-30T09:18:59.086Z,16.35
2024-01-30T09:24:05.305Z,15.10
2024-01-30T09:29:07.793Z,15.68
2024-01-30T09:34:10.597Z,15.60
2024-01-30T09:39:13.216Z,14.77
2024-01-30T09:44:18.315Z,15.70
2024-01-30T09:49:21.937Z,15.75
2024-01-30T09:54:24.900Z,15.43
2024-01-30T09:59:27.693Z,14.75
2024-01-30T10:04:30.364Z,13.50
2024-01-30T10:09:34.864Z,13.90
2024-01-30T10:14:41.596Z,14.43
2024-01-30T10:19:44.295Z,13.18
2024-01-30T10:24:47.034Z,14.40
2024-01-30T10:29:50.334Z,13.30
2024-01-30T10:34:53.006Z,14.80
2024-01-30T10:39:57.312Z,15.80
2024-01-30T10:45:09.960Z,15.07
2024-01-30T10:50:12.816Z,15.18
2024-01-30T10:55:17.185Z,14.90
2024-01-30T11:00:23.653Z,14.48
2024-01-30T11:05:31.933Z,13.40
2024-01-30T11:10:47.117Z,14.48
2024-01-30T11:15:49.982Z,14.80
2024-01-30T11:20:53.386Z,14.95
2024-01-30T11:25:57.170Z,14.27
2024-01-30T11:31:08.617Z,13.65
2024-01-30T11:36:14.564Z,14.57
2024-01-30T11:41:17.447Z,14.80
2024-01-30T11:46:20.120Z,14.32
2024-01-30T11:51:22.672Z,14.63
2024-01-30T11:56:26.565Z,14.00
2024-01-30T12:01:33.019Z,14.18
2024-01-30T12:06:37.409Z,14.32
2024-01-30T12:11:48.490Z,14.23
2024-01-30T12:16:52.065Z,14.10
2024-01-30T12:22:00.743Z,14.30
2024-01-30T12:27:03.553Z,14.35
2024-01-30T12:32:06.374Z,14.40
2024-01-30T12:37:10.757Z,14.50
2024-01-30T12:42:13.755Z,13.45
2024-01-30T12:47:17.836Z,13.15
2024-01-30T12:52:22.867Z,13.70
2024-01-30T12:57:25.947Z,13.07
2024-01-30T13:02:35.908Z,13.55
2024-01-30T13:07:38.432Z,13.63
2024-01-30T13:12:41.100Z,13.23
2024-01-30T13:17:45.130Z,12.48
2024-01-30T13:22:51.059Z,13.70
2024-01-30T13:27:53.790Z,13.75
2024-01-30T13:32:56.441Z,13.48
2024-01-30T13:37:59.127Z,11.77
2024-01-30T13:43:02.298Z,11.77
2024-01-30T13:48:05.264Z,11.93
2024-01-30T13:53:07.909Z,12.30
2024-01-30T13:58:10.559Z,11.30
2024-01-30T14:03:13.568Z,11.75
2024-01-30T14:08:17.129Z,11.32
2024-01-30T14:13:19.752Z,12.18
2024-01-30T14:18:22.238Z,11.40
2024-01-30T14:23:25.470Z,11.40
2024-01-30T14:28:28.050Z,12.02
2024-01-30T14:33:30.488Z,12.40
2024-01-30T14:38:33.037Z,12.30
2024-01-30T14:43:35.604Z,12.13
2024-01-30T14:48:38.414Z,13.65
2024-01-30T14:53:41.069Z,13.55
2024-01-30T14:58:44.800Z,14.55
2024-01-30T15:03:47.485Z,12.90
2024-01-30T15:08:49.985Z,13.13
2024-01-30T15:13:52.546Z,13.50
2024-01-30T15:18:55.179Z,14.43
2024-01-30T15:23:57.853Z,13.55
2024-01-30T15:29:01.842Z,15.38
2024-01-30T15:34:04.957Z,13.80
2024-01-30T15:39:07.647Z,12.48
2024-01-30T15:44:10.301Z,16.58
2024-01-30T15:49:12.884Z,12.60
2024-01-30T15:54:15.389Z,12.98
2024-01-30T15:59:37.232Z,12.15
2024-01-30T16:04:58.532Z,12.82
2024-01-30T16:10:20.409Z,13.70
2024-01-30T16:15:44.088Z,13.77
2024-01-30T16:21:05.235Z,13.07
2024-01-30T16:26:27.823Z,18.35
2024-01-30T16:31:48.769Z,15.07
2024-01-30T16:37:10.305Z,18.75
2024-01-30T16:42:31.642Z,16.70
2024-01-30T16:47:52.608Z,14.52
2024-01-30T16:53:13.812Z,12.98
2024-01-30T16:58:35.132Z,12.48
2024-01-30T17:03:57.024Z,12.90
2024-01-30T17:09:18.094Z,14.38
2024-01-30T17:14:40.704Z,14.45
2024-01-30T17:20:02.452Z,15.48
2024-01-30T17:25:23.879Z,13.73
2024-01-30T17:30:45.226Z,14.15
2024-01-30T17:36:06.666Z,13.52
2024-01-30T17:41:27.534Z,13.15
2024-01-30T17:46:49.148Z,13.63
2024-01-30T17:52:10.347Z,12.70
2024-01-30T17:57:31.608Z,12.43
2024-01-30T18:02:53.967Z,12.55
2024-01-30T18:08:15.240Z,13.32
2024-01-30T18:13:18.174Z,15.02
2024-01-30T18:18:20.949Z,19.48
2024-01-30T18:23:23.563Z,13.07
2024-01-30T18:28:27.976Z,14.13
2024-01-30T18:33:30.447Z,13.77
2024-01-30T18:38:33.253Z,12.88
2024-01-30T18:43:36.612Z,13.82
2024-01-30T18:48:39.832Z,14.05
2024-01-30T18:53:42.631Z,13.48
2024-01-30T18:58:45.204Z,12.50
2024-01-30T19:03:48.038Z,14.10
2024-01-30T19:08:50.792Z,14.25
2024-01-30T19:13:53.374Z,14.43
2024-01-30T19:18:57.337Z,14.15
2024-01-30T19:24:01.951Z,13.80
2024-01-30T19:29:04.628Z,13.43
2024-01-30T19:34:07.443Z,14.52
2024-01-30T19:39:14.278Z,14.57
2024-01-30T19:44:16.842Z,14.05
2024-01-30T19:49:20.131Z,13.82
2024-01-30T19:54:28.740Z,13.05
2024-01-30T19:59:31.896Z,12.55
2024-01-30T20:04:35.530Z,14.18
2024-01-30T20:09:38.267Z,13.25
2024-01-30T20:14:42.241Z,13.30
2024-01-30T20:19:46.513Z,14.13
2024-01-30T20:24:52.283Z,14.05
2024-01-30T20:29:58.596Z,13.98
2024-01-30T20:35:01.120Z,20.38
2024-01-30T20:40:04.830Z,14.43
2024-01-30T20:45:08.903Z,16.05
2024-01-30T20:50:11.456Z,17.88
2024-01-30T20:55:14.197Z,15.95
2024-01-30T21:00:17.728Z,16.30
2024-01-30T21:05:23.782Z,16.08
2024-01-30T21:10:26.962Z,17.67
2024-01-30T21:15:29.606Z,17.90
2024-01-30T21:20:32.420Z,19.33
2024-01-30T21:25:35.386Z,17.92
2024-01-30T21:30:38.143Z,16.95
2024-01-30T21:35:40.633Z,16.52
2024-01-30T21:40:43.605Z,16.98
2024-01-30T21:45:46.876Z,16.38
2024-01-30T21:50:49.522Z,14.57
2024-01-30T21:55:52.226Z,14.88
2024-01-30T22:00:54.835Z,16.45
2024-01-30T22:05:57.360Z,15.70
2024-01-30T22:11:00.131Z,16.40
2024-01-30T22:16:02.793Z,15.82
2024-01-30T22:21:08.614Z,16.80
2024-01-30T22:26:11.299Z,17.52
2024-01-30T22:31:13.965Z,16.77
2024-01-30T22:36:16.712Z,15.20
2024-01-30T22:41:24.062Z,15.20
2024-01-30T22:46:26.477Z,15.10
2024-01-30T22:51:29.905Z,15.90
2024-01-30T22:56:32.568Z,15.13
2024-01-30T23:01:35.695Z,15.10
2024-01-30T23:06:38.321Z,16.70
2024-01-30T23:11:41.819Z,16.33
2024-01-30T23:16:44.349Z,16.05
2024-01-30T23:21:46.841Z,15.98
2024-01-30T23:26:49.222Z,15.45
2024-01-30T23:31:52.417Z,15.27
2024-01-30T23:36:55.119Z,15.80
2024-01-30T23:41:57.715Z,14.45
2024-01-30T23:47:00.411Z,15.73
2024-01-30T23:52:03.244Z,15.20
2024-01-30T23:57:05.889Z,15.73
